Franco Alvarez

Olheiro-Chefe - Danubio
23 Out 2027
Sábado
Processo

Personalidade

Adaptabilidade (6) Ambição (10) Controvérsia (8) Lealdade (12) Pressão (14) Profissionalismo (6) Espírito Esportivo (20) Temperamento (8)

Perfil

Estilo de Treinamento Democrático
Licença Nacional B
Determinação 4
Gestão de Pessoas 6
Motivação 11
Disciplina 8
Satisfação no Trabalho
100%
Fadiga
0%
Função Olheiro-Chefe
Salário 42.4K p/s
Contrato 14.03.2029

Desempenho

Comportamento Bom
Eficácia do Treinamento
40%
Desenvolvimento do Jogador
30%
Prevenção de Lesões
45%
Implementação Tática
60%

Eventos Recentes

Participou de uma reunião de recrutamento agora
Recomendou um alvo de transferência agora
Recomendou um alvo de transferência agora
Participou de uma reunião de recrutamento 7d atrás
Recomendou um alvo de transferência 7d atrás
Recomendou um alvo de transferência 7d atrás
Recomendou um alvo de transferência 7d atrás
Recomendou um alvo de transferência 7d atrás

Monitorando agora

140
Jogador Clube Status Habilidade Confiança Observado Última observação Último voto
Bruno Centeno Deportivo Maldonado Ativo 92 / 101 58% 1 07.06.2027 Aprovar
Alexis Devesa Aldosivi Ativo 95 / 95 40% 1 07.06.2027 -
Sebastián Flores Rayo Vallecano Ativo 112 / 102 40% 3 06.06.2027 -
Alejandro Leiva Patronato Ativo 94 / 98 40% 1 06.06.2027 -
Caio Vidal FC Copenhagen Negociando 128 / 129 63% 1 01.06.2027 Aprovar
Joel Poiso Deportivo Maldonado Ativo 110 / 120 58% 1 01.06.2027 Aprovar
Facundo Di Biasi Getafe Ativo 116 / 114 40% 2 31.05.2027 -
Maeson King Blackpool Ativo 96 / 114 40% 1 31.05.2027 -
Zeidane Inoussa Swansea City Ativo 129 / 129 40% 3 30.05.2027 -
Jason Knight Bristol City Ativo 139 / 123 40% 1 30.05.2027 -
Jeon Jin-Woo Sheffield Wednesday Ativo 131 / 135 40% 3 29.05.2027 -
Ramón Terrats Getafe Ativo 136 / 146 40% 4 27.05.2027 -
Patricio Moyano Defensores Ativo 111 / 122 40% 1 27.05.2027 -
Julio Enciso Ipswich Town Ativo 132 / 156 40% 8 22.05.2027 -
Max Johnston Derby County Ativo 122 / 127 40% 2 21.05.2027 -
Harry Clarke Preston Ativo 129 / 133 40% 1 21.05.2027 -
Dale Taylor Blackpool Ativo 99 / 104 40% 3 20.05.2027 -
Aidomo Emakhu Oxford United Ativo 110 / 128 40% 2 20.05.2027 -
Helinho Toluca Ativo 147 / 142 40% 6 19.05.2027 -
Milan van Ewijk Coventry City Ativo 129 / 129 40% 2 19.05.2027 -
Alex Robertson Cardiff City Ativo 132 / 112 40% 1 16.05.2027 -
Finn Azaz Southampton Ativo 134 / 122 40% 3 14.05.2027 -
Jack McGlynn Stoke City Ativo 135 / 129 40% 5 14.05.2027 -
Loum Tchaouna Coventry City Ativo 137 / 149 40% 6 12.05.2027 -
Relebohile Mofokeng Orlando Pirates Ativo 115 / 128 40% 1 10.05.2027 -
Isaiah Jones Luton Town Ativo 130 / 118 40% 3 09.05.2027 -
Tshepang Moremi Orlando Pirates Ativo 111 / 113 40% 4 07.05.2027 -
Braian Cabral Madryn Ativo 91 / 101 40% 1 05.05.2027 -
Cian Ashford Cardiff City Ativo 114 / 111 40% 3 01.05.2027 -
Malik Mothersille Stockport County Ativo 104 / 107 40% 3 30.04.2027 -
Tomáš Rigo Stoke City Ativo 122 / 126 40% 1 27.04.2027 -
Tom Fellows Southampton Ativo 135 / 124 40% 3 25.04.2027 -
Agustín De la Cuesta Argentinos Juniors Ativo 100 / 118 40% 1 23.04.2027 -
Matías Magdaleno Estudiantes Ativo 98 / 113 40% 1 20.04.2027 -
Camilo Durán Bloemfontein Celtic Ativo 137 / 122 40% 3 16.04.2027 -
Daniel Kyerewaa Reading Ativo 130 / 112 40% 2 15.04.2027 -
Isaac Price West Bromwich Albion Ativo 117 / 131 40% 1 13.04.2027 -
Celías Ingenthron Platense Ativo 118 / 117 40% 1 13.04.2027 -
Tiago Freitas Benfica Ativo 118 / 115 40% 1 13.04.2027 -
Tiago Gordillo San Miguel Ativo 93 / 94 40% 1 11.04.2027 -
Tyrese Campbell Sheffield United Ativo 119 / 116 40% 2 08.04.2027 -
Ollie Tanner Cardiff City Ativo 105 / 118 40% 2 05.04.2027 -
Koki Saito Queens Park Rangers Ativo 120 / 122 40% 2 04.04.2027 -
Rumarn Burrell Queens Park Rangers Ativo 114 / 115 40% 1 04.04.2027 -
Paddy Lane Reading Ativo 99 / 101 40% 1 02.04.2027 -
Romaine Mundle Sunderland Ativo 146 / 143 40% 1 29.03.2027 -
Melker Widell Swansea City Ativo 134 / 111 40% 1 28.03.2027 -
Lamine Cissé Peterborough United Ativo 118 / 132 40% 2 27.03.2027 -
Brian Figueroa Morelia Ativo 95 / 114 40% 1 27.03.2027 -
Isma Ruiz Córdoba Ativo 132 / 122 40% 2 25.03.2027 -
Welington Southampton Ativo 132 / 118 40% 1 23.03.2027 -
Axel Frugone Betis Ativo 124 / 125 40% 1 16.03.2027 -
Caleb Yirenkyi Coventry City Ativo 123 / 132 40% 1 16.03.2027 -
Tariq Lamptey Queens Park Rangers Ativo 142 / 127 40% 1 16.03.2027 -
Jack Rudoni Coventry City Ativo 142 / 132 40% 3 15.03.2027 -
Andre Brooks Sheffield United Ativo 133 / 125 40% 1 14.03.2027 -
Max Bird Birmingham Ativo 127 / 129 40% 1 10.03.2027 -
Alejo Fernández Temperley Ativo 99 / 94 40% 1 09.03.2027 -
Riquelme Thompson-Jones Shrewsbury Town Ativo 120 / 117 40% 1 09.03.2027 -
James Dornelly Peterborough United Ativo 109 / 101 40% 1 08.03.2027 -
Dávid Strelec Middlesbrough Ativo 122 / 143 40% 1 06.03.2027 -
Jay Stansfield Birmingham Ativo 124 / 116 40% 1 05.03.2027 -
Ignacio Perruzzi Celta Ativo 140 / 123 40% 2 04.03.2027 -
Mirko Bruno Vélez Ativo 106 / 114 40% 1 03.03.2027 -
Mathias Jørgensen Blackburn Rovers Ativo 123 / 124 40% 2 24.02.2027 -
Juan Manuel Boselli Krasnodar Ativo 127 / 130 40% 6 22.02.2027 -
Oliver Skipp Leicester City Ativo 130 / 120 40% 1 17.02.2027 -
Thulani Phiri Platinum Stars Ativo 125 / 119 40% 1 07.02.2027 -
Nathan Moriah-Welsh Mansfield Town Ativo 125 / 110 40% 1 02.02.2027 -
Gonzalo Escudero Racing Club Ativo 98 / 116 40% 1 02.02.2027 -
Nicolás Rojas Banfield Ativo 107 / 110 40% 1 02.02.2027 -
Mauro Carrizo Atlético Tucumán Ativo 90 / 109 40% 1 30.12.2026 -
Santino Gatti Belgrano Ativo 105 / 94 40% 1 30.12.2026 -
Lucas Silva River Plate Ativo 90 / 110 40% 1 15.12.2026 -
Thulani Billiat Utrecht Ativo 136 / 136 61% 1 01.12.2026 Aprovar
Santiago Rodríguez Columbus Crew Ativo 141 / 126 40% 1 30.11.2026 -
Simon Elisor Universitatea Craiova Ativo 123 / 121 40% 1 26.11.2026 -
Ekain Orobengoa Real Sociedad Ativo 109 / 101 40% 1 26.11.2026 -
Bruno Damiani Philadelphia Union Ativo 107 / 109 40% 5 24.11.2026 -
Fabricio Oviedo Rosario Central Ativo 115 / 108 40% 2 21.11.2026 -
Mariano Peralta Bauer Defensa y Justicia Ativo 108 / 106 40% 2 21.11.2026 -
Manu Nieto Andorra Ativo 122 / 127 40% 3 20.11.2026 -
David Miculescu FCSB Ativo 116 / 116 40% 3 18.11.2026 -
Marcos Camarda Santiago Wanderers Ativo 101 / 102 40% 2 15.11.2026 -
Alexei Dominguez Pachuca Ativo 119 / 120 40% 1 15.11.2026 -
Gonzalo Córdoba Mitre Ativo 99 / 102 40% 5 14.11.2026 -
Marcelo Torres Gimnasia La Plata Negociando 119 / 123 40% 3 11.11.2026 -
Enzo Larrosa Independiente Medellin Ativo 114 / 107 40% 3 10.11.2026 -
Veljko Birmančević Ferencvaros Ativo 145 / 140 40% 1 07.11.2026 -
Juan Cruz Zurbriggen San Telmo Ativo 91 / 97 40% 3 06.11.2026 -
Tadeo Allende Inter Miami CF Ativo 138 / 128 40% 1 03.11.2026 -
Thiago Ponce Rosario Central Ativo 92 / 102 40% 2 30.10.2026 -
Wessam Abou Ali Columbus Crew Ativo 120 / 124 40% 2 27.10.2026 -
Claudio Campostrini All Boys Ativo 113 / 109 40% 1 26.10.2026 -
Gabriel Pirani San Diego Football Club Ativo 115 / 133 40% 1 21.10.2026 -
Mduduzi Shabalala Kaizer Chiefs Ativo 96 / 111 40% 1 21.10.2026 -
Tomás Chancalay Minnesota United FC Ativo 112 / 125 40% 1 20.10.2026 -
Facundo Mura Inter Miami CF Ativo 133 / 131 40% 1 17.10.2026 -
Leandro Suhr Piast Ativo 117 / 108 40% 4 15.10.2026 -
Liel Abada Charlotte Football Club Ativo 144 / 132 40% 1 15.10.2026 -
Tiago Benzi Belgrano Ativo 104 / 104 40% 1 11.10.2026 -
Agustín Venezia Iquique Ativo 105 / 116 40% 1 10.10.2026 -
Michael Vadulli Audax Italiano Ativo 113 / 107 40% 2 09.10.2026 -
Thiago Perugini San Lorenzo Ativo 92 / 104 40% 1 09.10.2026 -
Francisco Bareiro Vaduz Ativo 103 / 91 40% 1 04.10.2026 -
Kelvin Yeboah Minnesota United FC Ativo 111 / 118 40% 1 04.10.2026 -
Tomás Romero Unión de Santa Fe Ativo 89 / 96 40% 3 03.10.2026 -
Iván Maggi Sportivo Luqueno Ativo 121 / 106 40% 1 30.09.2026 -
Luca Langoni New England Revolution Ativo 132 / 120 40% 3 29.09.2026 -
Thiago Vecino O'Higgins Ativo 102 / 103 40% 1 29.09.2026 -
Fernando Mimbacas Juventud Ativo 114 / 108 40% 1 28.09.2026 -
Ignacio Sabatini Gimnasia y Esgrima Ativo 99 / 109 40% 2 26.09.2026 -
Genaro Rossi San Martín SJ Ativo 113 / 110 40% 1 25.09.2026 -
Julián Brea Cobresal Ativo 99 / 95 40% 1 21.09.2026 -
Alejo Cruz Juventud Ativo 114 / 114 40% 1 15.09.2026 -
Ramiro Ruiz Rodríguez Atlético Tucumán Ativo 125 / 122 40% 5 11.09.2026 -
Ismael Díaz Leon Ativo 125 / 130 40% 2 11.09.2026 -
Adrián Parra Deportes Tolima Ativo 110 / 123 40% 1 09.09.2026 -
Matías Calegari Boca Juniors Ativo 94 / 102 40% 1 08.09.2026 -
Axel Leiva Independiente Rivadavia Ativo 85 / 96 40% 1 08.09.2026 -
Guillermo Paiva Junior Ativo 117 / 125 40% 1 06.09.2026 -
Juninho Pumas UNAM Ativo 128 / 130 40% 1 06.09.2026 -
Martín Ojeda Orlando City Ativo 134 / 144 40% 1 04.09.2026 -
Lucas Besozzi Lanús Ativo 114 / 112 40% 1 02.09.2026 -
Fabricio Rojas Gimnasia y Tiro Ativo 119 / 117 40% 1 01.09.2026 -
Maximiliano Rodríguez Huachipato Ativo 110 / 118 40% 1 28.08.2026 -
Juan Romero Olimpia Ativo 119 / 118 40% 1 28.08.2026 -
Mourad Tijuana Ativo 103 / 118 40% 1 27.08.2026 -
Federico Girotti Alianza Lima Ativo 118 / 115 40% 1 24.08.2026 -
Alejandro Piedrahita Deportivo Pereira Ativo 123 / 119 40% 1 23.08.2026 -
Jhojan Julio Queretaro Ativo 107 / 108 40% 1 12.08.2026 -
Diego Rossi Monterrey Ativo 118 / 137 40% 1 11.08.2026 -
Tobías Donsanti Atletico Bucaramanga Ativo 104 / 95 40% 1 11.08.2026 -
Florián Monzón Atlas Ativo 111 / 129 40% 1 10.08.2026 -
Braulio Gennaro Deportivo Riestra Ativo 85 / 83 40% 1 06.08.2026 -
Rodrigo Pollero Deportivo Tachira Ativo 108 / 104 40% 1 04.08.2026 -
Bautista Maillier Colón Ativo 80 / 96 40% 1 03.08.2026 -
Javier Arellano San Lorenzo Ativo 90 / 93 40% 1 03.08.2026 -
César Araújo Tigres Ativo 139 / 125 40% 1 01.08.2026 -
Rodrigo González Aldosivi Ativo 114 / 120 40% 1 01.08.2026 -